sensor_id;sensor_type;location;lat;lon;timestamp;pressure;altitude;pressure_sealevel;temperature;humidity
9423;BME280;65863;49.506;10.400;2023-08-06T00:01:18;97284.53;;;14.12;95.78
9423;BME280;65863;49.506;10.400;2023-08-06T00:04:05;97280.69;;;13.98;95.91
9423;BME280;65863;49.506;10.400;2023-08-06T00:06:49;97229.50;;;13.63;96.18
9423;BME280;65863;49.506;10.400;2023-08-06T00:09:33;97228.44;;;13.77;96.64
9423;BME280;65863;49.506;10.400;2023-08-06T00:12:17;97268.34;;;14.03;96.94
9423;BME280;65863;49.506;10.400;2023-08-06T00:15:01;97245.50;;;13.89;97.09
9423;BME280;65863;49.506;10.400;2023-08-06T00:17:45;97265.81;;;14.07;97.28
9423;BME280;65863;49.506;10.400;2023-08-06T00:20:29;97182.44;;;13.55;97.41
9423;BME280;65863;49.506;10.400;2023-08-06T00:23:12;97237.19;;;13.91;97.58
9423;BME280;65863;49.506;10.400;2023-08-06T00:25:56;97221.63;;;13.71;97.83
9423;BME280;65863;49.506;10.400;2023-08-06T00:28:41;97237.06;;;13.80;97.97
9423;BME280;65863;49.506;10.400;2023-08-06T00:31:25;97212.56;;;13.63;98.19
9423;BME280;65863;49.506;10.400;2023-08-06T00:34:09;97203.34;;;13.62;98.60
9423;BME280;65863;49.506;10.400;2023-08-06T00:36:53;97235.84;;;13.83;98.45
9423;BME280;65863;49.506;10.400;2023-08-06T00:39:38;97224.59;;;13.63;98.64
9423;BME280;65863;49.506;10.400;2023-08-06T00:42:22;97225.91;;;13.72;99.18
9423;BME280;65863;49.506;10.400;2023-08-06T00:45:07;97231.41;;;13.80;99.71
9423;BME280;65863;49.506;10.400;2023-08-06T00:47:51;97200.53;;;13.72;99.99
9423;BME280;65863;49.506;10.400;2023-08-06T00:50:35;97186.59;;;13.64;100.00
9423;BME280;65863;49.506;10.400;2023-08-06T00:53:19;97232.25;;;14.02;100.00
9423;BME280;65863;49.506;10.400;2023-08-06T00:56:03;97209.88;;;13.94;100.00
9423;BME280;65863;49.506;10.400;2023-08-06T00:58:47;97209.09;;;14.03;100.00
9423;BME280;65863;49.506;10.400;2023-08-06T01:01:32;97200.06;;;13.95;100.00
9423;BME280;65863;49.506;10.400;2023-08-06T01:04:16;97195.19;;;13.86;100.00
9423;BME280;65863;49.506;10.400;2023-08-06T01:07:24;97209.56;;;13.90;100.00
9423;BME280;65863;49.506;10.400;2023-08-06T01:13:48;97216.53;;;13.89;100.00
9423;BME280;65863;49.506;10.400;2023-08-06T01:16:37;97208.56;;;13.75;100.00
9423;BME280;65863;49.506;10.400;2023-08-06T01:19:21;97237.06;;;13.80;100.00
9423;BME280;65863;49.506;10.400;2023-08-06T01:22:05;97203.34;;;13.72;100.00
9423;BME280;65863;49.506;10.400;2023-08-06T01:24:50;97192.38;;;13.66;100.00
9423;BME280;65863;49.506;10.400;2023-08-06T01:27:48;97216.09;;;13.92;100.00
9423;BME280;65863;49.506;10.400;2023-08-06T01:30:33;97183.31;;;13.77;100.00
9423;BME280;65863;49.506;10.400;2023-08-06T01:33:23;97105.13;;;13.09;100.00
9423;BME280;65863;49.506;10.400;2023-08-06T01:36:08;97202.44;;;13.89;100.00
9423;BME280;65863;49.506;10.400;2023-08-06T01:38:53;97164.94;;;13.57;100.00
9423;BME280;65863;49.506;10.400;2023-08-06T01:41:37;97178.28;;;13.66;100.00
9423;BME280;65863;49.506;10.400;2023-08-06T01:44:21;97202.44;;;13.89;100.00
9423;BME280;65863;49.506;10.400;2023-08-06T01:47:05;97188.50;;;13.71;100.00
9423;BME280;65863;49.506;10.400;2023-08-06T01:49:50;97204.41;;;13.76;100.00
9423;BME280;65863;49.506;10.400;2023-08-06T01:52:35;97184.97;;;13.71;100.00
9423;BME280;65863;49.506;10.400;2023-08-06T01:55:19;97190.59;;;13.71;100.00
9423;BME280;65863;49.506;10.400;2023-08-06T01:58:03;97188.81;;;13.75;100.00
9423;BME280;65863;49.506;10.400;2023-08-06T02:00:47;97173.41;;;13.67;100.00
9423;BME280;65863;49.506;10.400;2023-08-06T02:03:31;97148.16;;;13.49;100.00
9423;BME280;65863;49.506;10.400;2023-08-06T02:06:15;97157.50;;;13.71;100.00
9423;BME280;65863;49.506;10.400;2023-08-06T02:08:59;97154.97;;;13.66;100.00
9423;BME280;65863;49.506;10.400;2023-08-06T02:11:44;97125.31;;;13.35;100.00
9423;BME280;65863;49.506;10.400;2023-08-06T02:14:28;97129.63;;;13.36;100.00
9423;BME280;65863;49.506;10.400;2023-08-06T02:17:12;97144.00;;;13.50;100.00
9423;BME280;65863;49.506;10.400;2023-08-06T02:19:56;97130.22;;;13.35;100.00
9423;BME280;65863;49.506;10.400;2023-08-06T02:22:40;97145.34;;;13.39;100.00
9423;BME280;65863;49.506;10.400;2023-08-06T02:25:26;97118.63;;;13.11;100.00
9423;BME280;65863;49.506;10.400;2023-08-06T02:28:10;97117.16;;;13.00;100.00
9423;BME280;65863;49.506;10.400;2023-08-06T02:30:56;97111.94;;;12.97;100.00
9423;BME280;65863;49.506;10.400;2023-08-06T02:33:40;97110.63;;;12.88;100.00
9423;BME280;65863;49.506;10.400;2023-08-06T02:36:24;97105.56;;;12.77;100.00
9423;BME280;65863;49.506;10.400;2023-08-06T02:39:08;97123.81;;;12.85;100.00
9423;BME280;65863;49.506;10.400;2023-08-06T02:41:52;97109.41;;;12.71;100.00
9423;BME280;65863;49.506;10.400;2023-08-06T02:44:37;97084.50;;;12.58;100.00
9423;BME280;65863;49.506;10.400;2023-08-06T02:47:22;97088.81;;;12.59;100.00
9423;BME280;65863;49.506;10.400;2023-08-06T02:50:06;97087.00;;;12.54;100.00
9423;BME280;65863;49.506;10.400;2023-08-06T02:52:50;97090.06;;;12.38;100.00
9423;BME280;65863;49.506;10.400;2023-08-06T02:55:35;97089.91;;;12.27;100.00
9423;BME280;65863;49.506;10.400;2023-08-06T02:58:24;97070.81;;;12.25;100.00
9423;BME280;65863;49.506;10.400;2023-08-06T03:01:20;97091.41;;;12.28;100.00
9423;BME280;65863;49.506;10.400;2023-08-06T03:04:11;97125.66;;;12.44;100.00
9423;BME280;65863;49.506;10.400;2023-08-06T03:06:59;97089.47;;;12.30;100.00
9423;BME280;65863;49.506;10.400;2023-08-06T03:09:50;97101.03;;;12.34;100.00
9423;BME280;65863;49.506;10.400;2023-08-06T03:12:34;97078.34;;;12.22;100.00
9423;BME280;65863;49.506;10.400;2023-08-06T03:15:20;97036.47;;;11.89;100.00
9423;BME280;65863;49.506;10.400;2023-08-06T03:18:05;97066.00;;;12.08;100.00
9423;BME280;65863;49.506;10.400;2023-08-06T03:20:50;97064.38;;;12.05;100.00
9423;BME280;65863;49.506;10.400;2023-08-06T03:23:35;97071.66;;;11.91;100.00
9423;BME280;65863;49.506;10.400;2023-08-06T03:26:19;97101.63;;;11.96;100.00
9423;BME280;65863;49.506;10.400;2023-08-06T03:29:04;97082.63;;;11.86;100.00
9423;BME280;65863;49.506;10.400;2023-08-06T03:31:52;97079.91;;;11.79;100.00
9423;BME280;65863;49.506;10.400;2023-08-06T03:34:35;97101.50;;;11.76;100.00
9423;BME280;65863;49.506;10.400;2023-08-06T03:37:20;97101.63;;;11.68;100.00
9423;BME280;65863;49.506;10.400;2023-08-06T03:40:05;97090.13;;;11.57;100.00
9423;BME280;65863;49.506;10.400;2023-08-06T03:42:51;97081.03;;;11.39;100.00
9423;BME280;65863;49.506;10.400;2023-08-06T03:45:34;97076.25;;;11.31;100.00
9423;BME280;65863;49.506;10.400;2023-08-06T03:48:19;97099.69;;;11.44;100.00
9423;BME280;65863;49.506;10.400;2023-08-06T03:51:03;97056.75;;;11.33;100.00
9423;BME280;65863;49.506;10.400;2023-08-06T03:53:47;97048.47;;;11.35;100.00
9423;BME280;65863;49.506;10.400;2023-08-06T03:56:32;97060.66;;;11.48;100.00
9423;BME280;65863;49.506;10.400;2023-08-06T03:59:17;97018.66;;;11.23;100.00
9423;BME280;65863;49.506;10.400;2023-08-06T04:02:03;97000.59;;;11.16;100.00
9423;BME280;65863;49.506;10.400;2023-08-06T04:04:48;97067.91;;;11.51;100.00
9423;BME280;65863;49.506;10.400;2023-08-06T04:07:32;97070.19;;;11.62;100.00
9423;BME280;65863;49.506;10.400;2023-08-06T04:10:16;97062.94;;;11.59;100.00
9423;BME280;65863;49.506;10.400;2023-08-06T04:13:00;97038.19;;;11.48;100.00
9423;BME280;65863;49.506;10.400;2023-08-06T04:15:44;97050.84;;;11.66;100.00
9423;BME280;65863;49.506;10.400;2023-08-06T04:18:29;97066.16;;;11.83;100.00
9423;BME280;65863;49.506;10.400;2023-08-06T04:21:13;97040.09;;;11.73;100.00
9423;BME280;65863;49.506;10.400;2023-08-06T04:23:57;97057.88;;;11.85;100.00
9423;BME280;65863;49.506;10.400;2023-08-06T04:26:41;97022.41;;;11.62;100.00
9423;BME280;65863;49.506;10.400;2023-08-06T04:29:26;97023.84;;;11.81;100.00
9423;BME280;65863;49.506;10.400;2023-08-06T04:32:10;97053.13;;;12.05;100.00
9423;BME280;65863;49.506;10.400;2023-08-06T04:34:58;97048.34;;;11.98;100.00
9423;BME280;65863;49.506;10.400;2023-08-06T04:37:43;97039.09;;;11.87;100.00
9423;BME280;65863;49.506;10.400;2023-08-06T04:40:28;97028.31;;;11.84;100.00
9423;BME280;65863;49.506;10.400;2023-08-06T04:43:12;96997.53;;;11.49;100.00
9423;BME280;65863;49.506;10.400;2023-08-06T04:45:56;97038.44;;;11.97;100.00
9423;BME280;65863;49.506;10.400;2023-08-06T04:48:40;97065.78;;;12.33;100.00
9423;BME280;65863;49.506;10.400;2023-08-06T04:51:25;97077.22;;;12.55;100.00
9423;BME280;65863;49.506;10.400;2023-08-06T04:54:09;97045.09;;;12.58;100.00
9423;BME280;65863;49.506;10.400;2023-08-06T04:56:53;96996.47;;;12.38;100.00
9423;BME280;65863;49.506;10.400;2023-08-06T04:59:39;97049.84;;;12.95;100.00
9423;BME280;65863;49.506;10.400;2023-08-06T05:02:23;97022.13;;;12.91;100.00
9423;BME280;65863;49.506;10.400;2023-08-06T05:05:07;97048.19;;;13.11;100.00
9423;BME280;65863;49.506;10.400;2023-08-06T05:07:54;97031.72;;;13.27;100.00
9423;BME280;65863;49.506;10.400;2023-08-06T05:10:42;97044.13;;;13.63;100.00
9423;BME280;65863;49.506;10.400;2023-08-06T05:13:26;97031.44;;;13.84;100.00
9423;BME280;65863;49.506;10.400;2023-08-06T05:16:10;97022.69;;;14.11;100.00
9423;BME280;65863;49.506;10.400;2023-08-06T05:18:54;97061.44;;;14.73;100.00
9423;BME280;65863;49.506;10.400;2023-08-06T05:21:38;97035.97;;;14.95;100.00
9423;BME280;65863;49.506;10.400;2023-08-06T05:24:22;97052.25;;;15.06;100.00
9423;BME280;65863;49.506;10.400;2023-08-06T05:27:06;97008.84;;;14.68;100.00
9423;BME280;65863;49.506;10.400;2023-08-06T05:29:55;97040.63;;;14.90;100.00
9423;BME280;65863;49.506;10.400;2023-08-06T05:32:41;97050.97;;;14.97;99.43
9423;BME280;65863;49.506;10.400;2023-08-06T05:35:25;97059.38;;;15.07;98.48
9423;BME280;65863;49.506;10.400;2023-08-06T05:38:10;97004.94;;;14.73;97.53
9423;BME280;65863;49.506;10.400;2023-08-06T05:40:54;97048.06;;;15.07;97.14
9423;BME280;65863;49.506;10.400;2023-08-06T05:43:39;97068.88;;;15.24;96.58
9423;BME280;65863;49.506;10.400;2023-08-06T05:46:23;97050.59;;;15.25;95.99
9423;BME280;65863;49.506;10.400;2023-08-06T05:49:07;97059.22;;;15.27;95.56
9423;BME280;65863;49.506;10.400;2023-08-06T05:51:51;97051.94;;;15.24;95.06
9423;BME280;65863;49.506;10.400;2023-08-06T05:54:37;97072.13;;;15.30;94.85
9423;BME280;65863;49.506;10.400;2023-08-06T05:57:21;97035.78;;;15.03;94.41
9423;BME280;65863;49.506;10.400;2023-08-06T06:00:05;97062.75;;;15.15;94.22
9423;BME280;65863;49.506;10.400;2023-08-06T06:02:56;97018.03;;;14.90;94.12
9423;BME280;65863;49.506;10.400;2023-08-06T06:05:40;97063.72;;;15.20;94.00
9423;BME280;65863;49.506;10.400;2023-08-06T06:08:24;97066.75;;;15.46;94.10
9423;BME280;65863;49.506;10.400;2023-08-06T06:11:08;96971.22;;;14.87;93.89
9423;BME280;65863;49.506;10.400;2023-08-06T06:13:52;97032.16;;;15.24;93.67
9423;BME280;65863;49.506;10.400;2023-08-06T06:16:37;97049.88;;;15.24;93.26
9423;BME280;65863;49.506;10.400;2023-08-06T06:19:21;97010.16;;;14.89;93.11
9423;BME280;65863;49.506;10.400;2023-08-06T06:22:05;97048.88;;;15.20;93.24
9423;BME280;65863;49.506;10.400;2023-08-06T06:24:49;97034.56;;;15.06;93.29
9423;BME280;65863;49.506;10.400;2023-08-06T06:27:33;97039.00;;;15.66;94.05
9423;BME280;65863;49.506;10.400;2023-08-06T06:30:17;97042.63;;;16.26;93.28
9423;BME280;65863;49.506;10.400;2023-08-06T06:33:01;97063.31;;;16.05;91.31
9423;BME280;65863;49.506;10.400;2023-08-06T06:35:45;97041.38;;;15.81;90.87
9423;BME280;65863;49.506;10.400;2023-08-06T06:38:29;97019.22;;;15.66;90.29
9423;BME280;65863;49.506;10.400;2023-08-06T06:41:13;97031.03;;;15.74;90.13
9423;BME280;65863;49.506;10.400;2023-08-06T06:43:58;97059.34;;;16.22;90.67
9423;BME280;65863;49.506;10.400;2023-08-06T06:46:42;97065.28;;;16.38;90.16
9423;BME280;65863;49.506;10.400;2023-08-06T06:49:26;97050.03;;;16.80;89.67
9423;BME280;65863;49.506;10.400;2023-08-06T06:52:10;97040.03;;;17.29;87.96
9423;BME280;65863;49.506;10.400;2023-08-06T06:54:55;97043.31;;;17.77;84.56
9423;BME280;65863;49.506;10.400;2023-08-06T06:57:39;97007.97;;;17.00;81.38
9423;BME280;65863;49.506;10.400;2023-08-06T07:00:23;97048.69;;;16.93;80.67
9423;BME280;65863;49.506;10.400;2023-08-06T07:03:07;96977.78;;;15.94;80.99
9423;BME280;65863;49.506;10.400;2023-08-06T07:05:50;97052.09;;;16.42;81.07
9423;BME280;65863;49.506;10.400;2023-08-06T07:08:35;97052.06;;;16.66;80.81
9423;BME280;65863;49.506;10.400;2023-08-06T07:11:19;97065.63;;;16.20;79.88
9423;BME280;65863;49.506;10.400;2023-08-06T07:14:02;97054.38;;;15.63;80.57
9423;BME280;65863;49.506;10.400;2023-08-06T07:16:46;97052.09;;;15.38;81.82
9423;BME280;65863;49.506;10.400;2023-08-06T07:19:30;97046.16;;;15.22;83.01
9423;BME280;65863;49.506;10.400;2023-08-06T07:22:14;97060.31;;;15.33;84.33
9423;BME280;65863;49.506;10.400;2023-08-06T07:24:58;97047.31;;;15.40;85.24
9423;BME280;65863;49.506;10.400;2023-08-06T07:27:42;97037.56;;;15.20;85.14
9423;BME280;65863;49.506;10.400;2023-08-06T07:30:27;97057.91;;;15.40;86.07
9423;BME280;65863;49.506;10.400;2023-08-06T07:33:11;97059.91;;;15.15;86.60
9423;BME280;65863;49.506;10.400;2023-08-06T07:35:55;97049.03;;;14.78;87.49
9423;BME280;65863;49.506;10.400;2023-08-06T07:38:40;97094.72;;;14.75;88.53
9423;BME280;65863;49.506;10.400;2023-08-06T07:41:24;97072.00;;;14.41;89.92
9423;BME280;65863;49.506;10.400;2023-08-06T07:44:09;97020.28;;;13.86;90.75
9423;BME280;65863;49.506;10.400;2023-08-06T07:46:53;97073.94;;;14.07;92.04
9423;BME280;65863;49.506;10.400;2023-08-06T07:49:37;97069.34;;;14.12;92.87
9423;BME280;65863;49.506;10.400;2023-08-06T07:52:21;97037.53;;;13.80;93.72
9423;BME280;65863;49.506;10.400;2023-08-06T07:55:05;97055.97;;;14.12;93.96
9423;BME280;65863;49.506;10.400;2023-08-06T07:57:50;97029.72;;;14.00;93.67
9423;BME280;65863;49.506;10.400;2023-08-06T08:00:34;97051.28;;;14.27;93.95
9423;BME280;65863;49.506;10.400;2023-08-06T08:03:18;97075.66;;;14.54;93.51
9423;BME280;65863;49.506;10.400;2023-08-06T08:06:03;97056.75;;;14.56;93.47
9423;BME280;65863;49.506;10.400;2023-08-06T08:08:47;97059.81;;;14.70;93.13
9423;BME280;65863;49.506;10.400;2023-08-06T08:11:32;97080.09;;;15.33;92.55
9423;BME280;65863;49.506;10.400;2023-08-06T08:14:16;97054.63;;;15.67;91.63
9423;BME280;65863;49.506;10.400;2023-08-06T08:17:00;97049.16;;;15.93;89.84
9423;BME280;65863;49.506;10.400;2023-08-06T08:19:45;97053.94;;;16.49;88.69
9423;BME280;65863;49.506;10.400;2023-08-06T08:22:29;97010.25;;;15.93;86.43
9423;BME280;65863;49.506;10.400;2023-08-06T08:25:15;97059.50;;;15.88;85.85
9423;BME280;65863;49.506;10.400;2023-08-06T08:27:59;97060.13;;;15.41;86.42
9423;BME280;65863;49.506;10.400;2023-08-06T08:30:43;97061.63;;;15.21;87.75
9423;BME280;65863;49.506;10.400;2023-08-06T08:33:27;97072.22;;;15.20;89.53
9423;BME280;65863;49.506;10.400;2023-08-06T08:36:11;97035.84;;;14.93;90.13
9423;BME280;65863;49.506;10.400;2023-08-06T08:38:55;97075.69;;;15.30;91.00
9423;BME280;65863;49.506;10.400;2023-08-06T08:41:40;97054.09;;;15.47;91.36
9423;BME280;65863;49.506;10.400;2023-08-06T08:44:25;97060.28;;;15.55;91.49
9423;BME280;65863;49.506;10.400;2023-08-06T08:47:14;97076.72;;;15.47;90.84
9423;BME280;65863;49.506;10.400;2023-08-06T08:50:00;97074.03;;;15.15;90.15
9423;BME280;65863;49.506;10.400;2023-08-06T08:52:45;97047.28;;;14.95;90.46
9423;BME280;65863;49.506;10.400;2023-08-06T08:55:29;97055.06;;;15.06;90.49
9423;BME280;65863;49.506;10.400;2023-08-06T08:58:14;97085.66;;;15.31;91.07
9423;BME280;65863;49.506;10.400;2023-08-06T09:00:58;97046.19;;;15.33;91.13
9423;BME280;65863;49.506;10.400;2023-08-06T09:03:43;97051.00;;;15.31;90.99
9423;BME280;65863;49.506;10.400;2023-08-06T09:06:29;97074.50;;;15.45;91.14
9423;BME280;65863;49.506;10.400;2023-08-06T09:09:26;97053.34;;;15.46;90.85
9423;BME280;65863;49.506;10.400;2023-08-06T09:12:14;97085.38;;;15.61;90.67
9423;BME280;65863;49.506;10.400;2023-08-06T09:14:58;97076.28;;;15.74;90.64
9423;BME280;65863;49.506;10.400;2023-08-06T09:17:42;97064.53;;;16.01;89.98
9423;BME280;65863;49.506;10.400;2023-08-06T09:20:26;97052.22;;;16.09;88.20
9423;BME280;65863;49.506;10.400;2023-08-06T09:23:10;97062.09;;;16.20;86.76
9423;BME280;65863;49.506;10.400;2023-08-06T09:25:55;97054.69;;;16.14;85.27
9423;BME280;65863;49.506;10.400;2023-08-06T09:28:39;97033.28;;;15.88;84.37
9423;BME280;65863;49.506;10.400;2023-08-06T09:31:32;97048.53;;;16.30;84.02
9423;BME280;65863;49.506;10.400;2023-08-06T09:34:19;97035.25;;;16.21;82.91
9423;BME280;65863;49.506;10.400;2023-08-06T09:37:03;97023.59;;;16.64;83.08
9423;BME280;65863;49.506;10.400;2023-08-06T09:39:48;97007.41;;;16.78;82.26
9423;BME280;65863;49.506;10.400;2023-08-06T09:42:36;97019.13;;;16.84;80.53
9423;BME280;65863;49.506;10.400;2023-08-06T09:45:20;97049.88;;;17.02;79.56
9423;BME280;65863;49.506;10.400;2023-08-06T09:48:09;97028.28;;;17.09;79.54
9423;BME280;65863;49.506;10.400;2023-08-06T09:50:53;97016.81;;;17.07;79.24
9423;BME280;65863;49.506;10.400;2023-08-06T09:53:40;97026.53;;;17.41;79.48
9423;BME280;65863;49.506;10.400;2023-08-06T09:56:24;97013.19;;;16.92;78.29
9423;BME280;65863;49.506;10.400;2023-08-06T09:59:10;97019.09;;;16.35;78.48
9423;BME280;65863;49.506;10.400;2023-08-06T10:01:58;97040.44;;;16.00;79.81
9423;BME280;65863;49.506;10.400;2023-08-06T10:04:44;97052.94;;;16.33;82.10
9423;BME280;65863;49.506;10.400;2023-08-06T10:07:30;97047.63;;;16.63;82.64
9423;BME280;65863;49.506;10.400;2023-08-06T10:10:17;96988.97;;;16.28;81.20
9423;BME280;65863;49.506;10.400;2023-08-06T10:13:04;97018.69;;;16.52;79.99
9423;BME280;65863;49.506;10.400;2023-08-06T10:15:51;97032.63;;;16.98;80.05
9423;BME280;65863;49.506;10.400;2023-08-06T10:18:37;97037.84;;;16.78;78.77
9423;BME280;65863;49.506;10.400;2023-08-06T10:21:25;96957.59;;;16.12;78.78
9423;BME280;65863;49.506;10.400;2023-08-06T10:24:13;97016.47;;;16.63;78.99
9423;BME280;65863;49.506;10.400;2023-08-06T10:26:58;96934.97;;;16.49;78.59
9423;BME280;65863;49.506;10.400;2023-08-06T10:29:42;96998.97;;;17.30;77.15
9423;BME280;65863;49.506;10.400;2023-08-06T10:32:52;97023.50;;;17.51;76.72
9423;BME280;65863;49.506;10.400;2023-08-06T10:35:41;97016.34;;;17.89;75.39
9423;BME280;65863;49.506;10.400;2023-08-06T10:38:28;97020.44;;;17.86;75.32
9423;BME280;65863;49.506;10.400;2023-08-06T10:41:27;97010.00;;;17.77;75.42
9423;BME280;65863;49.506;10.400;2023-08-06T10:44:12;96998.72;;;17.51;75.99
9423;BME280;65863;49.506;10.400;2023-08-06T10:46:56;96982.31;;;17.10;77.16
9423;BME280;65863;49.506;10.400;2023-08-06T10:50:00;97017.22;;;17.52;78.54
9423;BME280;65863;49.506;10.400;2023-08-06T10:52:45;96982.72;;;17.44;76.92
9423;BME280;65863;49.506;10.400;2023-08-06T10:55:30;96987.28;;;17.77;76.20
9423;BME280;65863;49.506;10.400;2023-08-06T10:58:15;96908.44;;;17.34;74.97
9423;BME280;65863;49.506;10.400;2023-08-06T11:01:00;97009.63;;;18.52;74.18
9423;BME280;65863;49.506;10.400;2023-08-06T11:03:46;96990.56;;;18.55;72.74
9423;BME280;65863;49.506;10.400;2023-08-06T11:06:30;96984.28;;;18.86;72.02
9423;BME280;65863;49.506;10.400;2023-08-06T11:09:14;96982.19;;;18.43;70.85
9423;BME280;65863;49.506;10.400;2023-08-06T11:11:58;96952.09;;;17.68;71.79
9423;BME280;65863;49.506;10.400;2023-08-06T11:14:42;96941.16;;;17.77;72.74
9423;BME280;65863;49.506;10.400;2023-08-06T11:17:31;96928.53;;;18.21;72.39
9423;BME280;65863;49.506;10.400;2023-08-06T11:20:16;96972.59;;;17.81;72.58
9423;BME280;65863;49.506;10.400;2023-08-06T11:23:01;96989.44;;;17.37;74.76
9423;BME280;65863;49.506;10.400;2023-08-06T11:25:46;96963.94;;;17.11;77.98
9423;BME280;65863;49.506;10.400;2023-08-06T11:28:30;96945.41;;;16.59;79.38
9423;BME280;65863;49.506;10.400;2023-08-06T11:31:21;96963.28;;;16.49;80.96
9423;BME280;65863;49.506;10.400;2023-08-06T11:34:06;96990.88;;;16.86;82.61
9423;BME280;65863;49.506;10.400;2023-08-06T11:36:50;96914.56;;;16.39;82.71
9423;BME280;65863;49.506;10.400;2023-08-06T11:39:38;96967.97;;;16.82;82.60
9423;BME280;65863;49.506;10.400;2023-08-06T11:42:22;96922.41;;;16.03;82.23
9423;BME280;65863;49.506;10.400;2023-08-06T11:45:08;96968.56;;;16.17;82.83
9423;BME280;65863;49.506;10.400;2023-08-06T11:47:53;96960.53;;;17.27;83.27
9423;BME280;65863;49.506;10.400;2023-08-06T11:50:37;96976.03;;;17.65;79.63
9423;BME280;65863;49.506;10.400;2023-08-06T11:53:27;96876.09;;;17.39;75.98
9423;BME280;65863;49.506;10.400;2023-08-06T11:56:13;96979.78;;;18.10;72.95
9423;BME280;65863;49.506;10.400;2023-08-06T11:58:56;96953.25;;;17.77;72.30
9423;BME280;65863;49.506;10.400;2023-08-06T12:01:40;96954.91;;;17.54;72.86
9423;BME280;65863;49.506;10.400;2023-08-06T12:04:24;96996.78;;;17.42;73.00
9423;BME280;65863;49.506;10.400;2023-08-06T12:07:09;96950.38;;;17.10;73.89
9423;BME280;65863;49.506;10.400;2023-08-06T12:09:53;96966.19;;;17.01;75.96
9423;BME280;65863;49.506;10.400;2023-08-06T12:12:37;96996.38;;;17.08;75.73
9423;BME280;65863;49.506;10.400;2023-08-06T12:15:23;96997.56;;;16.79;77.41
9423;BME280;65863;49.506;10.400;2023-08-06T12:18:07;96981.06;;;16.38;80.56
9423;BME280;65863;49.506;10.400;2023-08-06T12:20:51;97002.38;;;16.27;82.71
9423;BME280;65863;49.506;10.400;2023-08-06T12:23:35;96991.03;;;16.39;84.63
9423;BME280;65863;49.506;10.400;2023-08-06T12:26:20;96890.09;;;15.82;84.29
9423;BME280;65863;49.506;10.400;2023-08-06T12:29:04;96962.91;;;16.17;83.84
9423;BME280;65863;49.506;10.400;2023-08-06T12:31:51;97001.38;;;16.23;84.27
9423;BME280;65863;49.506;10.400;2023-08-06T12:34:35;96987.13;;;16.09;85.59
9423;BME280;65863;49.506;10.400;2023-08-06T12:37:19;96980.56;;;16.30;86.56
9423;BME280;65863;49.506;10.400;2023-08-06T12:40:03;96984.31;;;16.21;86.12
9423;BME280;65863;49.506;10.400;2023-08-06T12:42:47;96974.00;;;15.90;85.93
9423;BME280;65863;49.506;10.400;2023-08-06T12:45:32;96993.53;;;16.09;86.24
9423;BME280;65863;49.506;10.400;2023-08-06T12:48:17;96987.25;;;15.99;85.65
9423;BME280;65863;49.506;10.400;2023-08-06T12:51:03;96990.09;;;15.99;85.62
9423;BME280;65863;49.506;10.400;2023-08-06T12:53:47;97011.84;;;16.20;86.16
9423;BME280;65863;49.506;10.400;2023-08-06T12:56:32;97015.56;;;15.87;85.68
9423;BME280;65863;49.506;10.400;2023-08-06T12:59:16;97001.97;;;15.62;86.67
9423;BME280;65863;49.506;10.400;2023-08-06T13:02:03;97015.03;;;15.55;87.60
9423;BME280;65863;49.506;10.400;2023-08-06T13:04:48;96998.75;;;15.32;88.36
9423;BME280;65863;49.506;10.400;2023-08-06T13:07:32;97018.81;;;15.03;88.49
9423;BME280;65863;49.506;10.400;2023-08-06T13:10:16;97002.88;;;15.07;89.43
9423;BME280;65863;49.506;10.400;2023-08-06T13:13:01;97021.31;;;15.08;89.97
9423;BME280;65863;49.506;10.400;2023-08-06T13:15:45;97042.47;;;15.19;90.77
9423;BME280;65863;49.506;10.400;2023-08-06T13:18:30;97020.53;;;15.08;91.55
9423;BME280;65863;49.506;10.400;2023-08-06T13:21:17;97044.28;;;15.14;92.19
9423;BME280;65863;49.506;10.400;2023-08-06T13:24:02;97050.97;;;14.97;92.93
9423;BME280;65863;49.506;10.400;2023-08-06T13:26:46;97038.34;;;14.77;92.74
9423;BME280;65863;49.506;10.400;2023-08-06T13:29:31;97030.81;;;14.91;93.83
9423;BME280;65863;49.506;10.400;2023-08-06T13:32:15;97034.78;;;14.55;93.78
9423;BME280;65863;49.506;10.400;2023-08-06T13:34:59;97032.06;;;14.57;95.07
9423;BME280;65863;49.506;10.400;2023-08-06T13:37:43;97031.06;;;14.52;95.53
9423;BME280;65863;49.506;10.400;2023-08-06T13:40:27;97042.31;;;14.40;95.30
9423;BME280;65863;49.506;10.400;2023-08-06T13:43:12;97068.31;;;14.39;95.34
9423;BME280;65863;49.506;10.400;2023-08-06T13:45:56;97047.25;;;14.30;95.66
9423;BME280;65863;49.506;10.400;2023-08-06T13:48:42;97081.16;;;14.52;95.73
9423;BME280;65863;49.506;10.400;2023-08-06T13:51:26;97052.94;;;14.52;95.41
9423;BME280;65863;49.506;10.400;2023-08-06T13:54:10;97069.66;;;14.59;94.79
9423;BME280;65863;49.506;10.400;2023-08-06T13:56:58;97056.81;;;14.46;94.18
9423;BME280;65863;49.506;10.400;2023-08-06T13:59:42;97066.41;;;14.63;94.02
9423;BME280;65863;49.506;10.400;2023-08-06T14:02:27;97062.47;;;14.46;93.52
9423;BME280;65863;49.506;10.400;2023-08-06T14:05:12;97079.00;;;14.40;93.97
9423;BME280;65863;49.506;10.400;2023-08-06T14:07:56;97060.91;;;14.34;94.31
9423;BME280;65863;49.506;10.400;2023-08-06T14:10:41;97075.78;;;14.24;94.34
9423;BME280;65863;49.506;10.400;2023-08-06T14:13:25;97096.59;;;14.29;94.48
9423;BME280;65863;49.506;10.400;2023-08-06T14:16:09;97091.78;;;14.00;93.98
9423;BME280;65863;49.506;10.400;2023-08-06T14:18:53;97127.53;;;14.17;94.18
9423;BME280;65863;49.506;10.400;2023-08-06T14:21:37;97110.09;;;14.31;94.91
9423;BME280;65863;49.506;10.400;2023-08-06T14:24:22;97119.56;;;14.35;94.91
9423;BME280;65863;49.506;10.400;2023-08-06T14:27:06;97115.69;;;14.40;94.85
9423;BME280;65863;49.506;10.400;2023-08-06T14:29:51;97120.47;;;14.38;94.77
9423;BME280;65863;49.506;10.400;2023-08-06T14:32:35;97087.31;;;14.38;94.75
9423;BME280;65863;49.506;10.400;2023-08-06T14:35:19;97113.28;;;14.46;93.33